Torm Republican — OYNE2 — position and weather

sailwx.info

Track history (hours):
 
Tides and Currents Weather Stations Pressure Air Temp Water Temp Dewpoint Dewpoint Depression Visibility Wind Speed Wind Dir Waves Ship Positions

Torm Republican

Last reported at 2017-Jan-03 10:25 UTC. Time now 2017-Jan-18 12:12 UTC.
Position N 30°05' W 094°04'.
Warning: this ship's position is 15 days out of date.

Length 183 m; draft 9.8 m.

Type: Tanker. MMSI: 220560000.

Date/timePositionNaut miles runAvg speedWind from/ knotsBaromVisibWave heightAir tempDewpointWater temp
2017-Jan-03 10:25N 30°05' W 094°04'0 0.0
2017-Jan-03 06:03N 30°05' W 094°04'0 0.0
2017-Jan-03 05:33N 30°05' W 094°04'0 0.1
2017-Jan-03 04:31N 30°05' W 094°04'6 6.0
2017-Jan-03 03:32N 30°01' W 093°59'6 6.6
2017-Jan-03 02:33N 29°59' W 093°52'8 7.8
2017-Jan-03 01:33N 29°52' W 093°56'7 7.5
2017-Jan-03 00:33N 29°45' W 093°53'1212.0
2017-Jan-02 23:33N 29°34' W 093°46'1111.3
2017-Jan-02 22:33N 29°25' W 093°39'2 0.1
2017-Jan-01 20:27N 29°25' W 093°37'  
Track history (hours):
 
Tides and Currents Weather Stations Pressure Air Temp Water Temp Dewpoint Dewpoint Depression Visibility Wind Speed Wind Dir Waves Ship Positions

Torm Republican

Last reported at 2017-Jan-03 10:25 UTC. Time now 2017-Jan-18 12:12 UTC.
Position N 30°05' W 094°04'.
Warning: this ship's position is 15 days out of date.

Length 183 m; draft 9.8 m.

Type: Tanker. MMSI: 220560000.

Date/timePositionNaut miles runAvg speedWind from/ knotsBaromVisibWave heightAir tempDewpointWater temp
2017-Jan-03 10:25N 30°05' W 094°04'0 0.0
2017-Jan-03 06:03N 30°05' W 094°04'0 0.0
2017-Jan-03 05:33N 30°05' W 094°04'0 0.1
2017-Jan-03 04:31N 30°05' W 094°04'6 6.0
2017-Jan-03 03:32N 30°01' W 093°59'6 6.6
2017-Jan-03 02:33N 29°59' W 093°52'8 7.8
2017-Jan-03 01:33N 29°52' W 093°56'7 7.5
2017-Jan-03 00:33N 29°45' W 093°53'1212.0
2017-Jan-02 23:33N 29°34' W 093°46'1111.3
2017-Jan-02 22:33N 29°25' W 093°39'2 0.1
2017-Jan-01 20:27N 29°25' W 093°37'  

Dump ship's entire track history